Time;durP1;ratioP1;P1;durP2;ratioP2;P2;SDS_P1;SDS_P2;PMS_P1;PMS_P2;Temp;Humidity;BMP_temperature;BMP_pressure;BME280_temperature;BME280_humidity;BME280_pressure;Samples;Min_cycle;Max_cycle;Signal;HPM_P1;HPM_P2
2021/12/29 00:00:41;;;;;;;6.03;2.70;;;;;;;12.89;65.49;99925.72;4949585;28;113762;-69
2021/12/29 00:03:10;;;;;;;6.68;2.42;;;;;;;12.89;65.20;99925.72;4947204;28;123055;-68
2021/12/29 00:05:37;;;;;;;4.32;2.40;;;;;;;12.90;65.34;99940.69;4931877;28;123269;-68
2021/12/29 00:08:05;;;;;;;9.77;2.70;;;;;;;12.88;65.18;99934.63;4949868;28;114482;-69
2021/12/29 00:10:32;;;;;;;5.82;2.35;;;;;;;12.88;65.39;99947.09;4949636;28;114409;-69
2021/12/29 00:13:00;;;;;;;5.47;2.25;;;;;;;12.88;65.21;99953.25;4950447;28;124726;-69
2021/12/29 00:15:28;;;;;;;3.97;2.20;;;;;;;12.88;65.38;99950.59;4951543;28;123809;-69
2021/12/29 00:17:57;;;;;;;6.90;2.33;;;;;;;12.89;65.27;99957.63;4952966;28;114407;-69
2021/12/29 00:20:28;;;;;;;6.10;2.80;;;;;;;12.89;65.32;99984.19;4951821;28;113055;-69
2021/12/29 00:22:58;;;;;;;5.30;2.05;;;;;;;12.90;65.17;99991.19;4934123;28;123268;-69
2021/12/29 00:25:26;;;;;;;5.07;2.20;;;;;;;12.90;65.05;99996.50;4952745;28;124198;-69
2021/12/29 00:27:58;;;;;;;4.20;2.45;;;;;;;12.92;65.20;99999.94;4935063;28;115269;-69
2021/12/29 00:30:26;;;;;;;6.13;2.65;;;;;;;12.91;65.28;100008.84;4949721;28;115323;-69
2021/12/29 00:32:57;;;;;;;4.95;2.90;;;;;;;12.92;65.35;100015.88;4952615;28;124486;-69
2021/12/29 00:35:45;;;;;;;5.47;2.78;;;;;;;12.92;65.18;100023.84;4951581;28;124658;-69
2021/12/29 00:38:31;;;;;;;6.80;3.10;;;;;;;12.93;65.49;100024.69;4953115;28;115315;-69
2021/12/29 00:41:17;;;;;;;8.82;3.08;;;;;;;12.92;65.42;100021.19;4938255;28;114290;-69
2021/12/29 00:44:03;;;;;;;6.00;3.17;;;;;;;12.91;65.17;100035.44;4952726;28;124547;-69
2021/12/29 00:46:53;;;;;;;6.07;3.20;;;;;;;12.91;65.33;100040.75;4952359;28;124730;-69
2021/12/29 00:49:22;;;;;;;5.90;3.10;;;;;;;12.91;65.23;100051.38;4952871;28;114489;-69
2021/12/29 00:51:49;;;;;;;5.90;3.22;;;;;;;12.91;65.13;100061.16;4934513;28;113034;-69
2021/12/29 00:54:17;;;;;;;6.00;3.13;;;;;;;12.90;65.19;100060.28;4951766;28;123685;-69
2021/12/29 00:56:44;;;;;;;8.10;3.47;;;;;;;12.90;65.47;100060.28;4950895;28;124081;-70
2021/12/29 00:59:11;;;;;;;6.53;3.17;;;;;;;12.91;65.28;100062.00;4951287;28;114125;-69
2021/12/29 01:01:39;;;;;;;5.97;3.22;;;;;;;12.93;65.29;100081.34;4950757;28;113723;-69
2021/12/29 01:04:06;;;;;;;8.45;3.40;;;;;;;12.93;65.18;100086.66;4950810;28;123825;-70
2021/12/29 01:06:34;;;;;;;7.63;3.28;;;;;;;12.92;65.44;100084.97;4952159;28;123819;-69
2021/12/29 01:09:01;;;;;;;9.73;3.40;;;;;;;12.92;65.21;100092.97;4934919;28;114385;-69
2021/12/29 01:11:28;;;;;;;8.13;3.95;;;;;;;12.92;65.22;100095.63;4952610;28;114298;-69
2021/12/29 01:13:55;;;;;;;7.63;3.60;;;;;;;12.92;65.30;100111.56;4949964;28;123405;-69
2021/12/29 01:19:14;;;;;;;8.88;3.58;;;;;;;12.92;65.21;100108.91;4949004;28;114862;-69
2021/12/29 01:21:44;;;;;;;8.45;3.53;;;;;;;12.92;65.13;100108.91;4949309;28;115099;-69
2021/12/29 01:24:12;;;;;;;9.63;3.80;;;;;;;12.92;65.28;100116.88;4951235;28;123927;-69
2021/12/29 01:26:42;;;;;;;9.55;4.07;;;;;;;12.92;65.24;100127.50;4950868;28;122525;-69
2021/12/29 01:29:11;;;;;;;8.05;3.75;;;;;;;12.92;65.18;100140.81;4951444;28;114201;-69
2021/12/29 01:31:40;;;;;;;8.68;3.92;;;;;;;12.93;65.17;100145.16;4933607;28;113874;-69
2021/12/29 01:34:07;;;;;;;8.25;4.00;;;;;;;12.94;65.26;100156.63;4950277;28;123980;-69
2021/12/29 01:36:36;;;;;;;7.68;4.20;;;;;;;12.92;65.31;100159.41;4934145;28;124028;-69
2021/12/29 01:39:07;;;;;;;8.13;4.28;;;;;;;12.93;65.27;100171.72;4934339;28;115038;-69
2021/12/29 01:41:35;;;;;;;7.22;4.07;;;;;;;12.92;65.29;100170.03;4950553;28;114138;-69
2021/12/29 01:44:03;;;;;;;7.50;4.07;;;;;;;12.93;65.24;100185.00;4950718;28;124299;-69
2021/12/29 01:46:30;;;;;;;11.02;4.72;;;;;;;12.92;65.21;100191.31;4951528;28;123876;-70
2021/12/29 01:48:57;;;;;;;7.65;4.72;;;;;;;12.91;65.45;100184.25;4934201;28;114044;-69
2021/12/29 01:51:25;;;;;;;7.60;4.38;;;;;;;12.91;65.21;100194.91;4933677;28;113983;-69
2021/12/29 01:54:14;;;;;;;9.02;4.88;;;;;;;12.89;65.34;100196.81;4933217;28;123721;-69
2021/12/29 01:56:46;;;;;;;8.63;4.88;;;;;;;12.88;65.28;100200.41;4948406;28;123956;-69
2021/12/29 01:59:14;;;;;;;9.10;5.00;;;;;;;12.88;65.29;100197.75;4950339;28;113825;-69
2021/12/29 02:01:43;;;;;;;7.93;5.00;;;;;;;12.88;65.41;100195.09;4951995;28;114953;-70
2021/12/29 02:04:10;;;;;;;11.40;5.63;;;;;;;12.88;65.31;100195.09;4950760;28;124819;-70
2021/12/29 02:06:38;;;;;;;10.18;5.43;;;;;;;12.88;65.50;100197.75;4951232;28;123331;-69
2021/12/29 02:09:06;;;;;;;9.05;5.63;;;;;;;12.89;65.35;100199.47;4950974;28;115106;-69
2021/12/29 02:11:34;;;;;;;9.80;5.60;;;;;;;12.89;65.37;100202.13;4951634;28;116041;-69
2021/12/29 02:14:04;;;;;;;11.55;6.05;;;;;;;12.89;65.46;100202.13;4933212;28;124066;-69
2021/12/29 02:16:33;;;;;;;8.85;5.78;;;;;;;12.90;65.45;100209.13;4951160;28;123558;-69
2021/12/29 02:19:04;;;;;;;9.57;6.03;;;;;;;12.89;65.46;100223.38;4951011;28;114385;-69
2021/12/29 02:21:32;;;;;;;9.70;5.32;;;;;;;12.89;65.49;100236.66;4950972;28;114029;-69
2021/12/29 02:24:18;;;;;;;8.13;5.13;;;;;;;12.90;65.48;100235.69;4932909;28;125246;-70
2021/12/29 02:26:46;;;;;;;;;;;;;;;12.87;65.33;100238.56;4950044;28;121810;-70
2021/12/29 02:29:16;;;;;;;7.18;4.80;;;;;;;12.90;65.32;100240.16;4951025;28;114454;-69
2021/12/29 02:31:46;;;;;;;8.80;5.13;;;;;;;12.89;65.38;100236.66;4932416;28;112916;-72
2021/12/29 02:34:16;;;;;;;13.30;5.10;;;;;;;12.88;65.28;100237.59;4949891;28;124525;-70
2021/12/29 02:36:45;;;;;;;8.88;5.30;;;;;;;12.87;65.27;100246.56;4950099;28;123732;-69
2021/12/29 02:39:16;;;;;;;8.25;5.13;;;;;;;12.86;65.41;100250.16;4950793;28;114244;-69
2021/12/29 02:41:50;;;;;;;8.00;5.47;;;;;;;12.86;65.61;100255.47;4950485;28;114173;-69
2021/12/29 02:44:24;;;;;;;10.68;5.22;;;;;;;12.86;65.51;100260.78;4948889;28;124075;-69
2021/12/29 02:46:53;;;;;;;9.93;4.93;;;;;;;12.86;65.30;100252.81;4949455;28;122726;-70
2021/12/29 02:49:22;;;;;;;7.55;5.25;;;;;;;12.86;65.33;100260.78;4952050;28;97018;-69
2021/12/29 02:51:49;;;;;;;10.35;5.18;;;;;;;12.85;65.37;100259.94;4933668;28;114020;-69
2021/12/29 02:54:17;;;;;;;10.15;5.28;;;;;;;12.87;65.19;100259.84;4948701;28;123913;-70
2021/12/29 02:56:48;;;;;;;7.68;4.68;;;;;;;12.88;65.49;100258.88;4932946;28;124326;-70
2021/12/29 02:59:16;;;;;;;7.75;4.55;;;;;;;12.89;65.49;100257.94;4949259;28;115068;-70
2021/12/29 03:01:43;;;;;;;9.00;5.22;;;;;;;12.89;65.30;100252.63;4948639;28;113683;-70
2021/12/29 03:04:11;;;;;;;6.82;4.15;;;;;;;12.89;65.35;100260.59;4932486;28;123500;-70
2021/12/29 03:06:39;;;;;;;8.65;4.45;;;;;;;12.90;65.34;100256.97;4948827;28;123286;-70
2021/12/29 03:09:09;;;;;;;8.20;4.07;;;;;;;12.89;65.34;100260.59;4933095;28;113937;-69
2021/12/29 03:11:37;;;;;;;6.65;4.30;;;;;;;12.90;65.23;100272.06;4950326;28;114098;-70
2021/12/29 03:14:05;;;;;;;6.60;4.20;;;;;;;12.89;65.10;100287.16;4949806;28;124304;-70
2021/12/29 03:16:33;;;;;;;7.15;4.22;;;;;;;12.89;65.38;100292.47;4950218;28;123712;-69
2021/12/29 03:19:03;;;;;;;7.38;4.22;;;;;;;12.88;65.29;100288.09;4951134;28;114333;-69
2021/12/29 03:21:32;;;;;;;7.03;4.45;;;;;;;12.89;65.16;100300.47;4950973;28;115696;-70
2021/12/29 03:24:00;;;;;;;7.80;4.50;;;;;;;12.89;65.16;100295.13;4948637;28;123566;-70
2021/12/29 03:26:27;;;;;;;7.53;4.38;;;;;;;12.89;64.72;100311.09;4933347;28;122739;-69
2021/12/29 03:28:57;;;;;;;11.15;4.93;;;;;;;12.89;65.34;100319.06;4933912;28;114120;-70
2021/12/29 03:31:26;;;;;;;7.65;4.40;;;;;;;12.88;65.31;100325.31;4950689;28;114314;-69
2021/12/29 03:33:53;;;;;;;6.57;4.10;;;;;;;12.89;65.12;100327.03;4949931;28;125034;-69
2021/12/29 03:36:20;;;;;;;6.40;4.47;;;;;;;12.90;65.15;100315.44;4949287;28;123907;-69
2021/12/29 03:38:48;;;;;;;9.43;4.32;;;;;;;12.89;65.20;100329.69;4950852;28;114538;-67
2021/12/29 03:41:18;;;;;;;7.75;4.47;;;;;;;12.88;65.12;100338.59;4933306;28;113398;-69
2021/12/29 03:43:46;;;;;;;7.13;4.78;;;;;;;12.89;65.28;100329.69;4949655;28;125082;-68
2021/12/29 03:46:14;;;;;;;7.78;4.43;;;;;;;12.89;65.30;100340.31;4932006;28;124012;-68
2021/12/29 03:48:44;;;;;;;5.88;4.07;;;;;;;12.89;65.10;100344.78;4952272;28;115184;-68
2021/12/29 03:51:11;;;;;;;5.55;3.90;;;;;;;12.88;65.29;100354.56;4953470;28;115476;-69
2021/12/29 03:53:39;;;;;;;7.05;3.75;;;;;;;12.88;65.21;100346.56;4935263;28;122601;-68
2021/12/29 03:56:07;;;;;;;6.15;4.05;;;;;;;12.88;65.14;100365.19;4935704;28;124305;-69
2021/12/29 03:58:35;;;;;;;9.25;4.32;;;;;;;12.87;65.15;100368.81;4953367;28;114483;-69
2021/12/29 04:01:13;;;;;;;7.07;3.88;;;;;;;12.83;65.07;100373.44;4935606;28;113438;-69
2021/12/29 04:03:42;;;;;;;6.82;3.88;;;;;;;12.84;65.04;100374.31;4934275;28;123661;-69
2021/12/29 04:06:09;;;;;;;6.93;4.13;;;;;;;12.84;65.13;100376.97;4953236;28;124493;-67
2021/12/29 04:08:36;;;;;;;7.22;4.10;;;;;;;12.84;65.18;100374.31;4953604;28;114053;-68
2021/12/29 04:11:03;;;;;;;7.15;4.35;;;;;;;12.85;65.18;100381.34;4932638;28;113934;-68
2021/12/29 04:13:31;;;;;;;6.85;4.07;;;;;;;12.84;65.14;100388.44;4951849;28;124816;-68
2021/12/29 04:15:58;;;;;;;7.68;4.60;;;;;;;12.84;65.35;100383.13;4952989;28;124685;-68
2021/12/29 04:18:30;;;;;;;6.53;4.00;;;;;;;12.84;65.18;100379.63;4953067;28;114837;-69
2021/12/29 04:21:03;;;;;;;6.55;4.30;;;;;;;12.83;65.27;100377.94;4949939;28;114396;-68
2021/12/29 04:23:33;;;;;;;7.20;4.68;;;;;;;12.82;65.40;100381.50;4952329;28;124223;-69
2021/12/29 04:26:02;;;;;;;9.23;4.97;;;;;;;12.82;65.33;100386.84;4935287;28;123808;-69
2021/12/29 04:28:30;;;;;;;9.40;5.32;;;;;;;12.81;65.27;100382.47;4953182;28;114507;-70
2021/12/29 04:31:01;;;;;;;8.20;4.82;;;;;;;12.82;65.35;100392.16;4935281;28;112933;-69
2021/12/29 04:33:28;;;;;;;7.35;4.95;;;;;;;12.82;65.28;100402.78;4934289;28;123163;-69
2021/12/29 04:35:56;;;;;;;11.02;5.60;;;;;;;12.83;65.12;100399.19;4952563;28;124189;-68
2021/12/29 04:38:24;;;;;;;9.50;5.82;;;;;;;12.84;65.32;100416.81;4952012;28;115682;-69
2021/12/29 04:40:55;;;;;;;11.45;6.35;;;;;;;12.84;65.22;100406.19;4935307;28;115725;-69
2021/12/29 04:43:23;;;;;;;9.82;6.18;;;;;;;12.84;65.39;100411.50;4950809;28;122934;-68
2021/12/29 04:45:51;;;;;;;9.50;6.53;;;;;;;12.86;65.19;100420.25;4952190;28;124000;-69
2021/12/29 04:48:19;;;;;;;13.07;6.30;;;;;;;12.87;65.41;100421.13;4952648;28;114367;-69
2021/12/29 04:50:53;;;;;;;9.95;6.32;;;;;;;12.87;65.40;100432.59;4952240;28;114142;-69
2021/12/29 04:53:22;;;;;;;11.13;6.00;;;;;;;12.86;65.31;100436.19;4932742;28;124356;-68
2021/12/29 04:55:50;;;;;;;10.05;6.07;;;;;;;12.87;65.28;100437.91;4935209;28;123934;-69
2021/12/29 04:58:20;;;;;;;8.98;6.10;;;;;;;12.87;65.13;100443.22;4934839;28;114193;-69
2021/12/29 05:00:50;;;;;;;8.57;5.82;;;;;;;12.86;65.30;100452.13;4952423;28;114195;-69
2021/12/29 05:03:19;;;;;;;9.38;6.43;;;;;;;12.86;65.33;100446.81;4933202;28;123186;-69
2021/12/29 05:08:25;;;;;;;10.30;6.75;;;;;;;12.87;65.35;100453.84;4950500;28;114213;-68
2021/12/29 05:10:58;;;;;;;11.32;6.72;;;;;;;12.89;65.39;100451.09;4949108;28;114447;-69
2021/12/29 05:13:27;;;;;;;12.75;6.40;;;;;;;12.88;65.35;100450.22;4951291;28;124029;-69
2021/12/29 05:15:57;;;;;;;10.88;6.70;;;;;;;12.89;65.46;100451.97;4951694;28;123607;-69
2021/12/29 05:18:27;;;;;;;10.18;6.07;;;;;;;12.90;65.32;100458.13;4934673;28;113713;-69
2021/12/29 05:20:55;;;;;;;10.68;6.75;;;;;;;12.89;65.27;100461.75;4934804;28;113209;-69
2021/12/29 05:23:23;;;;;;;12.80;6.75;;;;;;;12.88;65.22;100458.19;4951515;28;125776;-69
2021/12/29 05:25:51;;;;;;;10.35;6.10;;;;;;;12.86;65.34;100446.81;4933580;28;123396;-69
2021/12/29 05:28:19;;;;;;;9.80;6.00;;;;;;;12.87;65.50;100448.53;4934065;28;115382;-69
2021/12/29 05:30:47;;;;;;;11.23;6.20;;;;;;;12.86;65.16;100452.13;4951722;28;114706;-69
2021/12/29 05:33:15;;;;;;;10.90;6.05;;;;;;;12.86;65.35;100457.44;4933111;28;123311;-69
2021/12/29 05:35:43;;;;;;;9.60;6.10;;;;;;;12.84;65.33;100459.34;4934182;28;123268;-69
2021/12/29 05:38:10;;;;;;;10.10;6.25;;;;;;;12.84;65.35;100454.03;4934066;28;112964;-69
2021/12/29 05:40:37;;;;;;;11.80;6.30;;;;;;;12.83;65.29;100460.31;4934546;28;114506;-69
2021/12/29 05:43:05;;;;;;;9.82;5.90;;;;;;;12.81;65.38;100459.56;4951111;28;123470;-69
2021/12/29 05:45:32;;;;;;;10.75;6.65;;;;;;;12.81;65.60;100464.88;4934378;28;123606;-69
2021/12/29 05:48:01;;;;;;;12.07;6.70;;;;;;;12.80;65.27;100457.81;4934512;28;114161;-69
2021/12/29 05:50:30;;;;;;;12.25;6.85;;;;;;;12.80;65.41;100463.16;4933981;28;114024;-69
2021/12/29 05:52:59;;;;;;;12.68;6.70;;;;;;;12.79;65.42;100466.72;4933669;28;125036;-69
2021/12/29 05:55:27;;;;;;;12.73;6.75;;;;;;;12.78;65.23;100475.66;4951126;28;124396;-69
2021/12/29 05:57:54;;;;;;;12.40;7.10;;;;;;;12.78;65.30;100475.66;4951686;28;114336;-68
2021/12/29 06:00:23;;;;;;;12.55;7.22;;;;;;;12.77;65.35;100468.63;4951487;28;113853;-69
2021/12/29 06:02:51;;;;;;;10.65;6.68;;;;;;;12.78;65.45;100475.66;4951039;28;124743;-69
2021/12/29 06:05:19;;;;;;;13.55;7.60;;;;;;;12.77;65.42;100484.56;4951386;28;123890;-69
2021/12/29 06:07:46;;;;;;;16.20;7.80;;;;;;;12.78;65.34;100487.16;4951908;28;114861;-69
2021/12/29 06:10:13;;;;;;;15.93;7.43;;;;;;;12.77;65.40;100484.56;4933793;28;113991;-69
2021/12/29 06:12:41;;;;;;;14.20;8.00;;;;;;;12.78;65.24;100486.31;4950593;28;124266;-69
2021/12/29 06:15:09;;;;;;;14.68;8.07;;;;;;;12.77;65.30;100485.44;4933604;28;123896;-69
2021/12/29 06:17:37;;;;;;;13.27;8.05;;;;;;;12.77;65.38;100495.22;4932452;28;114377;-69
2021/12/29 06:20:07;;;;;;;13.63;7.75;;;;;;;12.77;65.24;100495.22;4949756;28;113656;-69
2021/12/29 06:22:34;;;;;;;13.52;7.82;;;;;;;12.76;65.22;100493.50;4950429;28;125459;-68
2021/12/29 06:25:05;;;;;;;16.08;7.95;;;;;;;12.76;65.40;100493.50;4951051;28;124616;-69
2021/12/29 06:27:32;;;;;;;14.68;7.75;;;;;;;12.75;65.38;100507.72;4933296;28;113566;-69
2021/12/29 06:29:59;;;;;;;12.95;8.13;;;;;;;12.75;65.32;100513.03;4933588;28;114578;-69
2021/12/29 06:32:27;;;;;;;16.80;7.72;;;;;;;12.76;65.39;100525.41;4933294;28;123698;-68
2021/12/29 06:34:55;;;;;;;17.67;8.60;;;;;;;12.76;65.46;100525.41;4951295;28;123933;-69
2021/12/29 06:37:22;;;;;;;16.98;7.82;;;;;;;12.77;65.16;100529.75;4951073;28;114154;-70
2021/12/29 06:39:49;;;;;;;14.25;7.57;;;;;;;12.77;65.40;100527.09;4950854;28;114662;-69
2021/12/29 06:42:18;;;;;;;15.10;7.65;;;;;;;12.77;65.36;100527.09;4950267;28;123862;-68
2021/12/29 06:44:47;;;;;;;16.60;8.07;;;;;;;12.76;65.39;100526.25;4950447;28;124711;-68
2021/12/29 06:47:15;;;;;;;15.55;8.07;;;;;;;12.76;65.38;100536.03;4950804;28;114496;-69
2021/12/29 06:49:42;;;;;;;16.33;8.07;;;;;;;12.76;65.42;100536.03;4950559;28;114047;-68
2021/12/29 06:52:10;;;;;;;14.20;7.55;;;;;;;12.77;65.38;100543.03;4950385;28;124908;-68
2021/12/29 06:54:38;;;;;;;15.82;8.02;;;;;;;12.78;65.30;100542.09;4932182;28;122915;-69
2021/12/29 06:57:05;;;;;;;17.55;8.40;;;;;;;12.77;65.16;100543.03;4951063;28;114335;-69
2021/12/29 06:59:33;;;;;;;16.33;7.85;;;;;;;12.77;65.39;100543.91;4951330;28;115089;-69
2021/12/29 07:02:00;;;;;;;16.55;8.18;;;;;;;12.78;65.02;100555.41;4932659;28;124102;-68
2021/12/29 07:04:27;;;;;;;14.25;8.60;;;;;;;12.77;65.31;100564.28;4948636;28;122269;-67
2021/12/29 07:06:55;;;;;;;15.43;7.97;;;;;;;12.77;65.17;100559.88;4950325;28;115355;-68
2021/12/29 07:09:23;;;;;;;15.93;7.20;;;;;;;12.77;65.29;100558.97;4933574;28;115351;-68
2021/12/29 07:11:51;;;;;;;13.10;7.40;;;;;;;12.78;65.16;100560.72;4948188;28;123307;-69
2021/12/29 07:14:20;;;;;;;12.68;7.70;;;;;;;12.77;65.09;100569.63;4950076;28;123628;-68
2021/12/29 07:16:49;;;;;;;13.93;8.25;;;;;;;12.76;65.21;100563.44;4932861;28;114217;-68
2021/12/29 07:19:17;;;;;;;12.93;7.25;;;;;;;12.76;65.26;100573.22;4932696;28;113099;-69
2021/12/29 07:21:46;;;;;;;12.82;7.70;;;;;;;12.75;65.32;100576.81;4948642;28;124542;-69
2021/12/29 07:24:13;;;;;;;12.88;7.20;;;;;;;12.74;65.27;100575.13;4932940;28;122750;-69
2021/12/29 07:26:41;;;;;;;13.80;7.80;;;;;;;12.74;65.04;100585.75;4950569;28;114194;-68
2021/12/29 07:29:08;;;;;;;13.15;7.75;;;;;;;12.75;65.14;100590.09;4949963;28;114041;-68
2021/12/29 07:31:35;;;;;;;13.93;7.30;;;;;;;12.75;65.17;100587.44;4929296;28;123905;-69
2021/12/29 07:34:20;;;;;;;16.08;7.80;;;;;;;12.75;65.16;100592.75;4934393;28;124278;-68
2021/12/29 07:36:48;;;;;;;12.73;7.45;;;;;;;12.73;65.12;100606.13;4931568;28;113929;-69
2021/12/29 07:39:15;;;;;;;19.17;8.13;;;;;;;12.74;65.09;100601.69;4932011;28;113440;-69
2021/12/29 07:41:44;;;;;;;18.17;7.60;;;;;;;12.72;64.84;100604.44;4931433;28;124118;-69
2021/12/29 07:44:18;;;;;;;14.50;7.38;;;;;;;12.72;65.16;100609.75;4931620;28;122885;-68
2021/12/29 07:46:49;;;;;;;14.32;7.57;;;;;;;12.71;65.20;100612.50;4947515;28;114139;-68
2021/12/29 07:49:16;;;;;;;12.75;7.25;;;;;;;12.71;65.07;100620.47;4931460;28;113054;-69
2021/12/29 07:51:44;;;;;;;15.60;7.38;;;;;;;12.70;65.07;100616.13;4930650;28;123927;-68
2021/12/29 07:54:13;;;;;;;13.07;7.18;;;;;;;12.70;65.27;100616.13;4948526;28;123547;-68
2021/12/29 07:56:42;;;;;;;17.55;7.13;;;;;;;12.69;65.19;100619.69;4948505;28;115325;-69
2021/12/29 07:59:10;;;;;;;14.02;7.00;;;;;;;12.69;65.08;100619.69;4928714;28;114588;-71
2021/12/29 08:01:39;;;;;;;11.77;6.72;;;;;;;12.70;65.21;100621.44;4949138;28;124695;-69
2021/12/29 08:04:10;;;;;;;12.57;6.93;;;;;;;12.66;65.21;100616.28;4931472;28;122963;-69
2021/12/29 08:06:37;;;;;;;13.00;6.65;;;;;;;12.68;65.11;100620.63;4949701;28;114879;-69
2021/12/29 08:09:07;;;;;;;15.27;7.45;;;;;;;12.69;65.11;100619.69;4950037;28;114114;-68
2021/12/29 08:11:34;;;;;;;11.60;6.53;;;;;;;12.66;65.09;100616.28;4949267;28;124601;-69
2021/12/29 08:14:01;;;;;;;11.90;6.47;;;;;;;12.68;65.22;100612.66;4932302;28;124413;-69
2021/12/29 08:16:28;;;;;;;11.50;7.07;;;;;;;12.66;64.97;100610.97;4950069;28;114291;-70
2021/12/29 08:18:55;;;;;;;13.23;6.63;;;;;;;12.67;65.17;100617.13;4932453;28;112869;-67
2021/12/29 08:21:22;;;;;;;12.93;6.97;;;;;;;12.69;65.03;100614.38;4948340;28;123922;-68
2021/12/29 08:23:50;;;;;;;13.63;6.60;;;;;;;12.69;65.29;100619.69;4931874;28;124360;-69
2021/12/29 08:26:19;;;;;;;12.38;6.47;;;;;;;12.71;65.16;100620.47;4949669;28;114500;-69
2021/12/29 08:28:46;;;;;;;11.43;6.57;;;;;;;12.70;65.14;100616.13;4932241;28;114738;-69
2021/12/29 08:31:13;;;;;;;14.27;7.00;;;;;;;12.69;65.03;100625.03;4948951;28;123657;-70
2021/12/29 08:33:41;;;;;;;16.38;7.50;;;;;;;12.66;64.97;100616.28;4950171;28;123756;-70
2021/12/29 08:36:08;;;;;;;11.70;6.25;;;;;;;12.70;65.02;100626.75;4934677;28;113615;-70
2021/12/29 08:38:35;;;;;;;10.57;6.50;;;;;;;12.69;65.12;100625.88;4953339;28;113763;-69
2021/12/29 08:41:03;;;;;;;13.82;6.90;;;;;;;12.70;64.98;100626.75;4934943;28;124651;-68
2021/12/29 08:43:31;;;;;;;13.50;6.68;;;;;;;12.70;65.01;100632.06;4952442;28;123921;-69
2021/12/29 08:45:59;;;;;;;11.73;6.20;;;;;;;12.70;65.05;100627.59;4952042;28;114937;-69
2021/12/29 08:48:27;;;;;;;14.55;6.30;;;;;;;12.72;65.11;100630.16;4935192;28;114986;-69
2021/12/29 08:50:58;;;;;;;15.40;6.65;;;;;;;12.73;64.97;100637.19;4952287;28;125305;-69
2021/12/29 08:53:26;;;;;;;12.88;6.60;;;;;;;12.74;64.99;100638.91;4934607;28;122893;-70
2021/12/29 08:55:56;;;;;;;11.30;5.80;;;;;;;12.75;64.99;100640.59;4952647;28;113983;-68
2021/12/29 08:58:25;;;;;;;10.32;5.53;;;;;;;12.74;64.90;100639.75;4935071;28;113049;-69
2021/12/29 09:00:54;;;;;;;12.68;5.82;;;;;;;12.75;64.89;100635.28;4951514;28;123996;-68
2021/12/29 09:03:21;;;;;;;12.45;5.60;;;;;;;12.74;65.08;100629.13;4952452;28;123896;-69
2021/12/29 09:05:49;;;;;;;11.57;5.78;;;;;;;12.75;64.86;100635.28;4952477;28;114192;-69
2021/12/29 09:08:16;;;;;;;8.75;4.93;;;;;;;12.76;65.16;100631.69;4952636;28;113821;-70
2021/12/29 09:10:44;;;;;;;9.95;5.28;;;;;;;12.78;65.01;100635.13;4951526;28;124481;-69
2021/12/29 09:13:13;;;;;;;12.23;5.63;;;;;;;12.80;65.11;100641.19;4951603;28;123538;-69
2021/12/29 09:15:40;;;;;;;10.10;5.57;;;;;;;12.81;64.92;100641.13;4934611;28;115149;-68
2021/12/29 09:18:07;;;;;;;8.70;5.45;;;;;;;12.84;64.98;100637.41;4935041;28;114391;-70
2021/12/29 09:20:37;;;;;;;13.02;5.88;;;;;;;12.87;64.97;100639.91;4951873;28;123793;-69
2021/12/29 09:23:06;;;;;;;12.55;5.32;;;;;;;12.89;64.94;100638.00;4951714;28;124445;-69
2021/12/29 09:25:37;;;;;;;9.45;5.15;;;;;;;12.91;65.02;100630.81;4952544;28;114266;-69
2021/12/29 09:28:05;;;;;;;11.50;5.40;;;;;;;12.91;65.00;100630.81;4951041;28;112779;-69
2021/12/29 09:30:35;;;;;;;10.63;5.35;;;;;;;12.93;64.90;100636.03;4951702;28;122937;-69
2021/12/29 09:33:04;;;;;;;10.45;4.63;;;;;;;12.95;65.03;100636.81;4951289;28;123785;-68
2021/12/29 09:35:31;;;;;;;9.65;5.03;;;;;;;12.96;64.92;100628.75;4951892;28;115067;-68
2021/12/29 09:38:04;;;;;;;9.80;5.50;;;;;;;12.99;64.88;100633.00;4934627;28;114134;-70
2021/12/29 09:40:31;;;;;;;9.45;5.47;;;;;;;12.99;64.92;100623.22;4933156;28;122839;-69
2021/12/29 09:42:58;;;;;;;10.80;5.70;;;;;;;13.01;64.72;100621.31;4934221;28;124080;-70
2021/12/29 09:45:25;;;;;;;10.20;5.38;;;;;;;13.03;64.98;100627.44;4950992;28;114983;-69
2021/12/29 09:47:57;;;;;;;11.05;5.15;;;;;;;13.05;64.65;100612.25;4933708;28;112042;-69
2021/12/29 09:50:25;;;;;;;8.65;5.35;;;;;;;13.08;64.79;100615.69;4952073;28;124044;-70
2021/12/29 09:52:53;;;;;;;9.48;5.60;;;;;;;13.09;64.62;100614.72;4935069;28;124249;-70
2021/12/29 09:55:22;;;;;;;10.68;5.20;;;;;;;13.10;64.75;100619.09;4952188;28;114447;-68
2021/12/29 09:57:52;;;;;;;9.38;5.60;;;;;;;13.11;64.62;100620.78;4934508;28;114024;-68
2021/12/29 10:00:27;;;;;;;8.73;5.50;;;;;;;13.11;64.55;100631.44;4949323;28;123046;-68
2021/12/29 10:02:57;;;;;;;8.13;5.43;;;;;;;13.11;64.67;100626.09;4933718;28;123071;-69
2021/12/29 10:05:27;;;;;;;8.98;5.38;;;;;;;13.13;64.72;100624.22;4952202;28;114396;-69
2021/12/29 10:08:00;;;;;;;10.07;6.20;;;;;;;13.14;64.63;100615.31;4952237;28;114571;-69
2021/12/29 10:10:28;;;;;;;9.25;5.43;;;;;;;13.16;64.55;100616.91;4948884;28;124225;-69
2021/12/29 10:12:56;;;;;;;10.98;5.85;;;;;;;13.18;64.52;100611.50;4933429;28;123792;-67
2021/12/29 10:15:35;;;;;;;9.43;5.93;;;;;;;13.21;64.63;100611.34;4952018;28;114268;-68
2021/12/29 10:18:12;;;;;;;10.00;6.35;;;;;;;13.25;64.52;100612.84;4949097;28;114358;-71
2021/12/29 10:20:45;;;;;;;11.43;6.35;;;;;;;13.28;64.68;100615.34;4933052;28;123913;-68
2021/12/29 10:23:17;;;;;;;9.52;6.05;;;;;;;13.31;64.49;100623.16;4951209;28;126083;-69
2021/12/29 10:25:44;;;;;;;8.93;5.25;;;;;;;13.34;64.47;100622.97;4948294;28;115771;-71
2021/12/29 10:28:19;;;;;;;9.10;5.88;;;;;;;13.36;64.37;100623.75;4951803;28;116175;-69
2021/12/29 10:30:53;;;;;;;;;;;;;;;13.37;64.57;100628.13;4951441;28;124464;-69
2021/12/29 10:33:20;;;;;;;10.68;5.70;;;;;;;13.42;64.48;100618.03;4933705;28;123021;-68
2021/12/29 10:35:51;;;;;;;9.55;5.50;;;;;;;13.44;64.30;100608.16;4950441;28;114165;-69
2021/12/29 10:38:24;;;;;;;9.45;4.88;;;;;;;13.47;64.05;100600.94;4951388;28;113690;-70
2021/12/29 10:40:51;;;;;;;10.25;5.55;;;;;;;13.47;64.08;100595.63;4947916;28;123967;-69
2021/12/29 10:43:18;;;;;;;10.70;5.07;;;;;;;13.48;64.00;100587.53;4949168;28;123009;-69
2021/12/29 10:45:46;;;;;;;9.82;5.20;;;;;;;13.49;63.99;100593.75;4934375;28;114188;-70
2021/12/29 10:48:18;;;;;;;10.02;4.90;;;;;;;13.50;63.94;100576.81;4951441;28;113690;-70
2021/12/29 10:51:03;;;;;;;9.40;5.32;;;;;;;13.51;63.82;100584.72;4950143;28;124192;-69
2021/12/29 10:53:33;;;;;;;7.63;4.93;;;;;;;13.52;63.78;100599.72;4951022;28;123695;-69
2021/12/29 10:56:02;;;;;;;9.57;4.65;;;;;;;13.53;63.80;100598.78;4951364;28;113919;-70
2021/12/29 10:58:33;;;;;;;9.38;5.05;;;;;;;13.54;63.75;100602.28;4951983;28;113064;-69
2021/12/29 11:01:06;;;;;;;8.07;5.13;;;;;;;13.55;63.71;100593.38;4951108;28;123967;-69
2021/12/29 11:03:47;;;;;;;8.20;4.63;;;;;;;13.57;63.69;100596.78;4934222;28;122735;-69
2021/12/29 11:06:17;;;;;;;9.82;4.82;;;;;;;13.58;63.45;100590.50;4950362;28;114251;-69
2021/12/29 11:08:57;;;;;;;10.63;5.18;;;;;;;13.59;63.62;100586.91;4935083;28;113298;-69
2021/12/29 11:11:32;;;;;;;9.10;4.90;;;;;;;13.60;63.57;100585.97;4948147;28;124560;-70
2021/12/29 11:14:06;;;;;;;9.07;5.03;;;;;;;13.60;63.60;100588.63;4933740;28;124423;-69
2021/12/29 11:16:33;;;;;;;7.82;4.63;;;;;;;13.60;63.57;100585.97;4933311;28;114305;-69
2021/12/29 11:19:01;;;;;;;10.35;4.93;;;;;;;13.61;63.56;100616.94;4951308;28;114697;-69
2021/12/29 11:21:36;;;;;;;7.65;4.63;;;;;;;13.59;63.36;100622.34;4950594;28;124375;-70
2021/12/29 11:24:17;;;;;;;10.35;4.60;;;;;;;13.60;63.44;100623.22;4933349;28;123686;-70
2021/12/29 11:26:45;;;;;;;11.38;4.55;;;;;;;13.59;63.46;100616.16;4950598;28;114204;-69
2021/12/29 11:29:15;;;;;;;8.57;4.63;;;;;;;13.58;63.62;100610.00;4933198;28;114506;-70